Time;durP1;ratioP1;P1;durP2;ratioP2;P2;SDS_P1;SDS_P2;PMS_P1;PMS_P2;Temp;Humidity;BMP_temperature;BMP_pressure;BME280_temperature;BME280_humidity;BME280_pressure;Samples;Min_cycle;Max_cycle;Signal;HPM_P1;HPM_P2
2023/01/26 00:00:54;;;;;;;2.08;0.95;;;0.20;99.90;;;;;;5058315;28;20049;-87
2023/01/26 00:03:20;;;;;;;0.00;0.00;;;0.20;99.90;;;;;;5057618;28;20106;-87
2023/01/26 00:05:46;;;;;;;3.10;1.45;;;0.20;99.90;;;;;;5057816;28;20068;-88
2023/01/26 00:08:12;;;;;;;0.47;0.47;;;0.20;99.90;;;;;;5056993;28;20071;-87
2023/01/26 00:10:39;;;;;;;0.95;0.95;;;0.10;99.90;;;;;;5058399;28;20049;-87
2023/01/26 00:13:06;;;;;;;0.63;0.57;;;0.10;99.90;;;;;;5058880;28;20041;-87
2023/01/26 00:15:33;;;;;;;1.30;1.20;;;0.10;99.90;;;;;;5058249;28;20052;-87
2023/01/26 00:17:59;;;;;;;2.13;1.97;;;0.10;99.90;;;;;;5058141;28;20628;-87
2023/01/26 00:20:26;;;;;;;1.07;1.07;;;0.00;99.90;;;;;;5057930;28;20495;-87
2023/01/26 00:22:51;;;;;;;1.65;1.55;;;0.00;99.90;;;;;;5056415;28;20047;-87
2023/01/26 00:25:17;;;;;;;0.90;0.90;;;0.00;99.90;;;;;;5056348;28;20068;-87
2023/01/26 00:27:43;;;;;;;0.75;0.70;;;0.00;99.90;;;;;;5056434;28;20041;-87
2023/01/26 00:30:09;;;;;;;0.10;0.10;;;0.00;99.90;;;;;;5056469;28;20372;-86
2023/01/26 00:32:35;;;;;;;0.20;0.20;;;0.00;99.90;;;;;;5056211;28;20041;-87
2023/01/26 00:35:01;;;;;;;1.48;1.38;;;0.00;99.90;;;;;;5056286;28;20167;-87
2023/01/26 00:37:26;;;;;;;2.30;2.10;;;0.00;99.90;;;;;;5056138;28;20053;-86
2023/01/26 00:39:52;;;;;;;0.27;0.27;;;0.00;99.90;;;;;;5056627;28;20502;-87
2023/01/26 00:42:18;;;;;;;0.10;0.10;;;0.10;99.90;;;;;;5072463;28;20048;-86
2023/01/26 00:44:43;;;;;;;0.27;0.27;;;0.10;99.90;;;;;;5057301;28;20486;-86
2023/01/26 00:47:11;;;;;;;0.43;0.43;;;0.10;99.90;;;;;;5072529;28;20049;-87
2023/01/26 00:49:37;;;;;;;2.08;0.90;;;0.10;99.90;;;;;;5055434;28;20071;-86
2023/01/26 00:52:03;;;;;;;0.20;0.20;;;0.20;99.90;;;;;;5056530;28;20041;-86
2023/01/26 00:54:29;;;;;;;0.10;0.10;;;0.20;99.90;;;;;;5056246;28;20813;-87
2023/01/26 00:56:54;;;;;;;0.63;0.63;;;0.20;99.90;;;;;;5056622;28;20510;-86
2023/01/26 00:59:20;;;;;;;1.07;1.07;;;0.20;99.90;;;;;;5056721;28;20048;-87
2023/01/26 01:01:46;;;;;;;0.38;0.38;;;0.20;99.90;;;;;;5056691;28;20049;-88
2023/01/26 01:04:12;;;;;;;1.10;1.10;;;0.20;99.90;;;;;;5056124;28;20045;-86
2023/01/26 01:06:38;;;;;;;0.30;0.30;;;0.20;99.90;;;;;;5071186;28;20048;-86
2023/01/26 01:09:03;;;;;;;0.68;0.68;;;0.20;99.90;;;;;;5054757;28;20041;-86
2023/01/26 01:11:29;;;;;;;0.20;0.20;;;0.20;99.90;;;;;;5055893;28;20095;-85
2023/01/26 01:13:54;;;;;;;0.38;0.38;;;0.20;99.90;;;;;;5056349;28;20040;-86
2023/01/26 01:16:20;;;;;;;2.40;0.80;;;0.30;99.90;;;;;;5054798;28;20124;-86
2023/01/26 01:18:46;;;;;;;0.00;0.00;;;0.20;99.90;;;;;;5056313;28;20088;-86
2023/01/26 01:21:14;;;;;;;0.00;0.00;;;0.20;99.90;;;;;;5055806;28;20131;-86
2023/01/26 01:23:41;;;;;;;1.50;1.43;;;0.30;99.90;;;;;;5056407;28;20041;-86
2023/01/26 01:26:07;;;;;;;1.02;0.90;;;0.30;99.90;;;;;;5056772;28;20044;-86
2023/01/26 01:28:34;;;;;;;0.38;0.38;;;0.30;99.90;;;;;;5056158;28;20049;-85
2023/01/26 01:31:03;;;;;;;0.20;0.20;;;0.30;99.90;;;;;;5056251;28;20088;-85
2023/01/26 01:33:29;;;;;;;2.00;1.55;;;0.30;99.90;;;;;;5056303;28;20058;-86
2023/01/26 01:35:59;;;;;;;0.50;0.50;;;0.30;99.90;;;;;;5056641;28;20116;-85
2023/01/26 01:38:26;;;;;;;0.00;0.00;;;0.30;99.90;;;;;;5056216;28;20491;-86
2023/01/26 01:40:54;;;;;;;0.22;0.22;;;0.30;99.90;;;;;;5056025;28;20056;-86
2023/01/26 01:43:20;;;;;;;1.88;0.68;;;0.30;99.90;;;;;;5055566;28;20045;-86
2023/01/26 01:45:47;;;;;;;0.10;0.10;;;0.30;99.90;;;;;;5055623;28;20041;-86
2023/01/26 01:48:24;;;;;;;2.00;1.85;;;0.30;99.90;;;;;;5054739;28;20422;-85
2023/01/26 01:50:53;;;;;;;1.15;1.05;;;0.30;99.90;;;;;;5055063;28;20047;-85
2023/01/26 01:53:26;;;;;;;1.00;0.90;;;0.30;99.90;;;;;;5055366;28;20401;-86
2023/01/26 01:55:58;;;;;;;0.20;0.20;;;0.30;99.90;;;;;;5055853;28;20045;-85
2023/01/26 01:58:26;;;;;;;1.13;1.05;;;0.30;99.90;;;;;;5056432;28;20064;-85
2023/01/26 02:00:52;;;;;;;0.30;0.30;;;0.30;99.90;;;;;;5056545;28;20045;-87
2023/01/26 02:03:19;;;;;;;0.05;0.05;;;0.30;99.90;;;;;;5071605;28;20257;-85
2023/01/26 02:06:05;;;;;;;0.30;0.30;;;0.40;99.90;;;;;;5057063;28;20048;-85
2023/01/26 02:08:45;;;;;;;0.30;0.30;;;0.30;99.90;;;;;;5056649;28;20045;-86
2023/01/26 02:11:15;;;;;;;0.10;0.10;;;0.40;99.90;;;;;;5055961;28;20041;-86
2023/01/26 02:13:43;;;;;;;0.32;0.32;;;0.40;99.90;;;;;;5056215;28;20053;-85
2023/01/26 02:16:08;;;;;;;0.35;0.35;;;0.40;99.90;;;;;;5056173;28;20506;-86
2023/01/26 02:18:34;;;;;;;0.45;0.45;;;0.40;99.90;;;;;;5055820;28;20040;-85
2023/01/26 02:21:03;;;;;;;0.17;0.17;;;0.30;99.90;;;;;;5054875;28;20110;-86
2023/01/26 02:23:59;;;;;;;0.88;0.88;;;1.10;99.90;;;;;;5056480;28;20040;-86
2023/01/26 02:26:32;;;;;;;1.55;1.48;;;0.30;99.90;;;;;;5055634;28;20052;-85
2023/01/26 02:28:58;;;;;;;0.73;0.73;;;0.40;99.90;;;;;;5057050;28;20049;-86
2023/01/26 02:31:24;;;;;;;0.00;0.00;;;0.30;99.90;;;;;;5056349;28;20083;-86
2023/01/26 02:33:50;;;;;;;2.92;1.05;;;0.30;99.90;;;;;;5059871;28;20086;-85
2023/01/26 02:36:28;;;;;;;0.13;0.13;;;0.30;99.90;;;;;;5059917;28;20492;-86
2023/01/26 02:39:32;;;;;;;1.50;1.40;;;0.30;99.90;;;;;;5059417;28;20072;-85
2023/01/26 02:44:43;;;;;;;0.47;0.47;;;0.40;99.90;;;;;;5059675;28;20053;-85
2023/01/26 02:47:14;;;;;;;0.25;0.25;;;0.30;99.90;;;;;;5059085;28;20088;-85
2023/01/26 02:49:46;;;;;;;0.35;0.30;;;0.30;99.90;;;;;;5058287;28;20071;-86
2023/01/26 02:52:12;;;;;;;0.22;0.22;;;0.30;99.90;;;;;;5059706;28;20037;-85
2023/01/26 02:57:21;;;;;;;0.85;0.85;;;0.40;99.90;;;;;;5060464;28;20045;-85
2023/01/26 02:59:47;;;;;;;0.10;0.10;;;0.40;99.90;;;;;;5060598;28;20502;-86
2023/01/26 03:02:13;;;;;;;0.20;0.20;;;0.40;99.90;;;;;;5059240;28;20474;-85
2023/01/26 03:04:38;;;;;;;3.17;1.77;;;0.90;99.90;;;;;;5060089;28;20045;-85
2023/01/26 03:07:04;;;;;;;0.22;0.22;;;0.40;99.90;;;;;;5060250;28;20072;-85
2023/01/26 03:09:29;;;;;;;2.05;1.90;;;0.40;99.90;;;;;;5060178;28;20049;-85
2023/01/26 03:11:55;;;;;;;0.38;0.38;;;0.40;99.90;;;;;;5061284;28;20120;-86
2023/01/26 03:14:21;;;;;;;0.30;0.30;;;0.40;99.90;;;;;;5060264;28;20040;-85
2023/01/26 03:16:46;;;;;;;0.55;0.55;;;0.40;99.90;;;;;;5060401;28;20043;-86
2023/01/26 03:27:28;;;;;;;0.00;0.00;;;0.40;99.90;;;;;;5061817;28;20064;-86
2023/01/26 03:29:55;;;;;;;0.30;0.30;;;0.40;99.90;;;;;;5061985;28;20049;-85
2023/01/26 03:32:20;;;;;;;0.00;0.00;;;0.30;99.90;;;;;;5061972;28;20048;-86
2023/01/26 03:34:46;;;;;;;0.20;0.20;;;0.40;99.90;;;;;;5061407;28;20065;-85
2023/01/26 03:37:12;;;;;;;0.10;0.10;;;0.40;99.90;;;;;;5060879;28;20041;-85
2023/01/26 03:56:18;;;;;;;0.40;0.40;;;0.40;99.90;;;;;;5061477;28;20091;-86
2023/01/26 03:58:45;;;;;;;0.63;0.63;;;0.40;99.90;;;;;;5061102;28;20552;-86
2023/01/26 04:01:18;;;;;;;6.38;1.55;;;0.40;99.90;;;;;;5061157;28;20502;-86
2023/01/26 04:09:19;;;;;;;0.15;0.15;;;0.40;99.90;;;;;;5060879;28;20130;-86
2023/01/26 04:11:45;;;;;;;1.98;0.52;;;0.40;99.90;;;;;;5060486;28;20123;-86
2023/01/26 04:22:26;;;;;;;0.10;0.10;;;0.40;99.90;;;;;;5060960;28;20056;-86
2023/01/26 04:24:51;;;;;;;0.10;0.10;;;0.40;99.90;;;;;;5060914;28;20402;-87
2023/01/26 04:27:17;;;;;;;0.00;0.00;;;0.40;99.90;;;;;;5061127;28;20452;-86
2023/01/26 04:29:43;;;;;;;0.20;0.20;;;0.40;99.90;;;;;;5060736;28;20045;-86
2023/01/26 04:32:08;;;;;;;1.43;1.33;;;0.40;99.90;;;;;;5076036;28;20051;-86
2023/01/26 04:34:34;;;;;;;0.28;0.28;;;0.40;99.90;;;;;;5060126;28;20053;-87
2023/01/26 04:36:59;;;;;;;1.00;0.75;;;0.40;99.90;;;;;;5060240;28;20045;-85
2023/01/26 04:39:25;;;;;;;0.52;0.52;;;0.40;99.90;;;;;;5060679;28;20037;-86
2023/01/26 04:41:50;;;;;;;0.87;0.53;;;0.40;99.90;;;;;;5075030;28;20052;-86
2023/01/26 04:44:16;;;;;;;6.50;1.23;;;0.40;99.90;;;;;;5059358;28;20037;-86
2023/01/26 04:46:42;;;;;;;0.00;0.00;;;0.40;99.90;;;;;;5058521;28;20056;-86
2023/01/26 04:49:07;;;;;;;0.67;0.67;;;0.40;99.90;;;;;;5059122;28;20041;-87
2023/01/26 04:51:33;;;;;;;2.20;1.07;;;0.40;99.90;;;;;;5059120;28;20071;-86
2023/01/26 04:53:59;;;;;;;0.40;0.40;;;0.40;99.90;;;;;;5059495;28;20119;-86
2023/01/26 04:56:29;;;;;;;0.57;0.57;;;0.40;99.90;;;;;;5058542;28;20065;-86
2023/01/26 04:58:58;;;;;;;0.25;0.25;;;0.40;99.90;;;;;;5058020;28;20056;-86
2023/01/26 05:01:23;;;;;;;0.10;0.10;;;0.40;99.90;;;;;;5059355;28;20052;-86
2023/01/26 05:03:49;;;;;;;0.15;0.15;;;0.40;99.90;;;;;;5058794;28;20041;-86
2023/01/26 05:06:15;;;;;;;0.47;0.47;;;0.40;99.90;;;;;;5059149;28;20390;-86
2023/01/26 05:08:41;;;;;;;1.23;1.20;;;0.40;99.90;;;;;;5058580;28;20065;-87
2023/01/26 05:11:06;;;;;;;0.00;0.00;;;0.40;99.90;;;;;;5058727;28;20091;-86
2023/01/26 05:13:34;;;;;;;0.38;0.38;;;0.40;99.90;;;;;;5058704;28;20426;-86
2023/01/26 05:16:01;;;;;;;0.97;0.97;;;0.40;99.90;;;;;;5058707;28;20450;-86
2023/01/26 05:18:27;;;;;;;0.30;0.30;;;0.40;99.90;;;;;;5058434;28;20060;-86
2023/01/26 05:20:53;;;;;;;1.70;1.35;;;0.40;99.90;;;;;;5058894;28;20048;-87
2023/01/26 05:23:18;;;;;;;0.30;0.30;;;0.40;99.90;;;;;;5058381;28;20049;-87
2023/01/26 05:25:44;;;;;;;0.20;0.20;;;0.40;99.90;;;;;;5057744;28;20037;-86
2023/01/26 05:28:10;;;;;;;0.03;0.03;;;0.40;99.90;;;;;;5058457;28;20044;-87
2023/01/26 05:30:35;;;;;;;1.33;1.23;;;0.40;99.90;;;;;;5058947;28;20055;-86
2023/01/26 05:33:06;;;;;;;1.05;1.05;;;0.40;99.90;;;;;;5057343;28;20063;-87
2023/01/26 05:35:31;;;;;;;8.13;2.27;;;0.40;99.90;;;;;;5058706;28;20052;-86
2023/01/26 05:37:57;;;;;;;0.40;0.40;;;0.40;99.90;;;;;;5057924;28;20041;-87
2023/01/26 05:40:24;;;;;;;0.20;0.20;;;0.40;99.90;;;;;;5059879;28;20037;-86
2023/01/26 05:42:51;;;;;;;0.97;0.93;;;0.40;99.90;;;;;;5056863;28;20063;-87
2023/01/26 05:45:17;;;;;;;0.57;0.57;;;0.40;99.90;;;;;;5057666;28;20045;-87
2023/01/26 05:47:44;;;;;;;1.15;1.05;;;0.40;99.90;;;;;;5058094;28;20056;-87
2023/01/26 05:50:11;;;;;;;0.47;0.45;;;0.50;99.90;;;;;;5057203;28;20512;-86
2023/01/26 05:52:37;;;;;;;0.35;0.35;;;0.50;99.90;;;;;;5055939;28;20041;-87
2023/01/26 05:55:04;;;;;;;1.42;0.88;;;0.50;99.90;;;;;;5057474;28;20072;-86
2023/01/26 05:57:29;;;;;;;2.92;1.00;;;0.40;99.90;;;;;;5057620;28;20049;-87
2023/01/26 05:59:55;;;;;;;0.37;0.37;;;0.40;99.90;;;;;;5057517;28;20044;-87
2023/01/26 06:02:21;;;;;;;0.40;0.40;;;0.50;99.90;;;;;;5057053;28;20033;-87
2023/01/26 06:04:46;;;;;;;0.00;0.00;;;0.40;99.90;;;;;;5057207;28;20033;-87
2023/01/26 06:07:12;;;;;;;1.13;1.03;;;0.50;99.90;;;;;;5057358;28;20037;-87
2023/01/26 06:09:39;;;;;;;0.88;0.80;;;0.50;99.90;;;;;;5061037;28;20041;-87
2023/01/26 06:12:05;;;;;;;0.37;0.37;;;0.40;99.90;;;;;;5088916;28;20049;-87
2023/01/26 06:14:31;;;;;;;1.00;1.00;;;0.40;99.90;;;;;;5056478;28;20086;-86
2023/01/26 06:16:56;;;;;;;0.77;0.77;;;0.40;99.90;;;;;;5056402;28;20045;-87
2023/01/26 06:19:22;;;;;;;1.80;1.45;;;0.50;99.90;;;;;;5055115;28;20040;-87
2023/01/26 06:21:48;;;;;;;0.20;0.20;;;0.40;99.90;;;;;;5056161;28;20135;-87
2023/01/26 06:24:13;;;;;;;0.17;0.17;;;0.40;99.90;;;;;;5057301;28;20043;-87
2023/01/26 06:26:39;;;;;;;0.75;0.75;;;0.40;99.90;;;;;;5073345;28;20414;-87
2023/01/26 06:29:06;;;;;;;0.10;0.10;;;0.40;99.90;;;;;;5056355;28;20048;-87
2023/01/26 06:31:31;;;;;;;0.50;0.50;;;0.50;99.90;;;;;;5056035;28;20049;-87
2023/01/26 06:33:57;;;;;;;0.32;0.32;;;0.40;99.90;;;;;;5054610;28;20041;-87
2023/01/26 06:36:22;;;;;;;0.10;0.10;;;0.40;99.90;;;;;;5071394;28;20072;-87
2023/01/26 06:38:50;;;;;;;3.67;1.63;;;0.40;99.90;;;;;;5055817;28;20040;-87
2023/01/26 06:41:16;;;;;;;0.10;0.10;;;0.40;99.90;;;;;;5055841;28;20060;-87
2023/01/26 06:43:46;;;;;;;16.08;1.35;;;0.40;99.90;;;;;;5056134;28;20124;-87
2023/01/26 06:46:12;;;;;;;0.00;0.00;;;0.40;99.90;;;;;;5055821;28;20186;-87
2023/01/26 06:48:38;;;;;;;0.20;0.20;;;0.40;99.90;;;;;;5055608;28;20547;-87
2023/01/26 06:51:16;;;;;;;19.53;1.07;;;0.40;99.90;;;;;;5055574;28;20584;-87
2023/01/26 06:53:47;;;;;;;0.10;0.10;;;0.40;99.90;;;;;;5055472;28;20041;-87
2023/01/26 06:56:13;;;;;;;1.45;1.30;;;0.40;99.90;;;;;;5055640;28;20090;-87
2023/01/26 06:58:39;;;;;;;1.47;1.07;;;0.50;99.90;;;;;;5055674;28;20052;-87
2023/01/26 07:01:04;;;;;;;1.40;0.93;;;0.40;99.90;;;;;;5055560;28;20052;-86
2023/01/26 07:03:30;;;;;;;0.43;0.38;;;0.40;99.90;;;;;;5070873;28;20394;-87
2023/01/26 07:05:56;;;;;;;0.47;0.47;;;0.50;99.90;;;;;;5055709;28;20040;-87
2023/01/26 07:08:22;;;;;;;1.33;1.13;;;0.50;99.90;;;;;;5070872;28;20182;-87
2023/01/26 07:10:49;;;;;;;4.93;0.82;;;0.50;99.90;;;;;;5055352;28;20048;-87
2023/01/26 07:13:15;;;;;;;0.20;0.20;;;0.50;99.90;;;;;;5055421;28;20083;-87
2023/01/26 07:15:40;;;;;;;0.37;0.37;;;0.50;99.90;;;;;;5055400;28;20041;-87
2023/01/26 07:18:06;;;;;;;0.00;0.00;;;0.60;99.90;;;;;;5055128;28;20486;-87
2023/01/26 07:20:31;;;;;;;1.83;1.43;;;0.50;99.90;;;;;;5055234;28;20080;-87
2023/01/26 07:23:00;;;;;;;0.10;0.10;;;0.50;99.90;;;;;;5054870;28;20109;-87
2023/01/26 07:25:26;;;;;;;0.10;0.10;;;0.50;99.90;;;;;;5055247;28;20041;-87
2023/01/26 07:27:58;;;;;;;0.10;0.10;;;0.60;99.90;;;;;;5054950;28;20052;-87
2023/01/26 07:30:24;;;;;;;0.17;0.17;;;0.50;99.90;;;;;;5054972;28;20068;-87
2023/01/26 07:32:50;;;;;;;0.00;0.00;;;0.50;99.90;;;;;;5070384;28;20049;-87
2023/01/26 07:35:16;;;;;;;0.40;0.40;;;0.60;99.90;;;;;;5054817;28;20064;-87
2023/01/26 07:37:41;;;;;;;1.02;0.90;;;0.60;99.90;;;;;;5070102;28;20092;-87
2023/01/26 07:40:08;;;;;;;0.65;0.65;;;0.60;99.90;;;;;;5054778;28;21047;-87
2023/01/26 07:42:33;;;;;;;4.00;1.63;;;0.70;99.90;;;;;;5054735;28;20541;-87
2023/01/26 07:44:59;;;;;;;0.00;0.00;;;0.80;99.90;;;;;;5053466;28;20171;-88
2023/01/26 07:47:25;;;;;;;2.78;2.58;;;0.70;99.90;;;;;;5054440;28;20056;-87
2023/01/26 07:49:50;;;;;;;0.30;0.30;;;0.60;99.90;;;;;;5069869;28;20049;-87
2023/01/26 07:52:16;;;;;;;0.40;0.40;;;0.70;99.90;;;;;;5054501;28;20053;-87
2023/01/26 07:54:42;;;;;;;0.15;0.15;;;0.70;99.90;;;;;;5054441;28;20040;-87
2023/01/26 07:57:07;;;;;;;1.08;0.85;;;0.70;99.90;;;;;;5054636;28;20479;-87
2023/01/26 07:59:34;;;;;;;0.10;0.10;;;0.90;99.90;;;;;;5054489;28;20111;-87
2023/01/26 08:01:59;;;;;;;0.43;0.43;;;0.90;99.90;;;;;;5069646;28;20045;-87
2023/01/26 08:04:25;;;;;;;0.10;0.10;;;0.80;99.90;;;;;;5054079;28;20449;-87
2023/01/26 08:06:51;;;;;;;3.92;2.55;;;1.00;99.90;;;;;;5054109;28;20442;-87
2023/01/26 08:09:17;;;;;;;0.00;0.00;;;1.20;99.90;;;;;;5054116;28;20045;-87
2023/01/26 08:11:42;;;;;;;0.52;0.52;;;1.00;99.90;;;;;;5054175;28;20037;-87
2023/01/26 08:14:08;;;;;;;0.10;0.10;;;1.00;99.90;;;;;;5054172;28;20048;-87
2023/01/26 08:16:33;;;;;;;0.10;0.10;;;0.80;99.90;;;;;;5052908;28;20083;-87
2023/01/26 08:18:59;;;;;;;0.85;0.85;;;0.80;99.90;;;;;;5052780;28;20392;-87
2023/01/26 08:21:25;;;;;;;1.75;0.57;;;0.80;99.90;;;;;;5069495;28;20048;-87
2023/01/26 08:23:51;;;;;;;0.83;0.83;;;0.80;99.90;;;;;;5052505;28;20415;-88
2023/01/26 08:26:18;;;;;;;0.40;0.40;;;0.80;99.90;;;;;;5052650;28;20054;-87
2023/01/26 08:28:44;;;;;;;0.70;0.35;;;0.90;99.90;;;;;;5053925;28;20037;-88
2023/01/26 08:31:11;;;;;;;2.93;1.70;;;0.90;99.90;;;;;;5053304;28;20041;-88
2023/01/26 08:33:40;;;;;;;0.10;0.10;;;0.90;99.90;;;;;;5053623;28;20037;-88
2023/01/26 08:36:09;;;;;;;0.95;0.93;;;0.90;99.90;;;;;;5069080;28;20124;-87
2023/01/26 08:38:35;;;;;;;1.45;0.90;;;1.30;99.90;;;;;;5053341;28;20106;-87
2023/01/26 08:41:01;;;;;;;0.10;0.10;;;1.20;99.90;;;;;;5053984;28;20486;-87
2023/01/26 08:43:27;;;;;;;0.00;0.00;;;1.20;99.90;;;;;;5069202;28;20083;-87
2023/01/26 08:45:54;;;;;;;2.72;1.48;;;1.20;99.90;;;;;;5053427;28;20049;-87
2023/01/26 08:48:20;;;;;;;0.22;0.22;;;1.40;99.90;;;;;;5054337;28;20049;-87
2023/01/26 08:50:46;;;;;;;0.25;0.20;;;1.60;99.90;;;;;;5053687;28;20045;-87
2023/01/26 08:53:12;;;;;;;0.22;0.20;;;1.70;99.90;;;;;;5068672;28;20380;-88
2023/01/26 08:55:37;;;;;;;0.43;0.43;;;1.80;99.90;;;;;;5053415;28;20094;-87
2023/01/26 08:58:03;;;;;;;3.20;1.80;;;1.90;99.90;;;;;;5052086;28;20437;-87
2023/01/26 09:00:29;;;;;;;1.50;1.40;;;2.00;99.90;;;;;;5052168;28;20083;-87
2023/01/26 09:03:02;;;;;;;7.90;1.80;;;2.20;99.90;;;;;;5053505;28;20040;-87
2023/01/26 09:05:31;;;;;;;0.65;0.65;;;2.30;99.90;;;;;;5053144;28;20138;-87
2023/01/26 09:07:57;;;;;;;0.10;0.10;;;2.40;99.90;;;;;;5052191;28;20184;-87
2023/01/26 09:10:22;;;;;;;0.55;0.55;;;2.50;99.90;;;;;;5051780;28;20170;-87
2023/01/26 09:12:51;;;;;;;0.20;0.20;;;2.70;99.90;;;;;;5053001;28;20613;-87
2023/01/26 09:15:17;;;;;;;0.65;0.60;;;2.90;99.90;;;;;;5051740;28;20170;-88
2023/01/26 09:17:42;;;;;;;0.17;0.17;;;3.00;99.90;;;;;;5051635;28;20502;-87
2023/01/26 09:20:11;;;;;;;0.40;0.30;;;3.20;99.90;;;;;;5053376;28;20045;-87
2023/01/26 09:22:37;;;;;;;0.10;0.10;;;3.30;99.90;;;;;;5068423;28;20047;-88
2023/01/26 09:25:03;;;;;;;0.10;0.10;;;3.30;99.90;;;;;;5068561;28;20041;-88
2023/01/26 09:27:29;;;;;;;0.85;0.40;;;3.40;99.90;;;;;;5052824;28;20049;-86
2023/01/26 09:29:54;;;;;;;1.65;1.00;;;3.40;99.90;;;;;;5052600;28;20059;-86
2023/01/26 09:32:20;;;;;;;0.28;0.22;;;3.50;99.90;;;;;;5053037;28;20080;-86
2023/01/26 09:34:46;;;;;;;0.68;0.68;;;3.50;99.90;;;;;;5052831;28;20124;-86
2023/01/26 09:37:12;;;;;;;1.10;1.02;;;3.50;99.90;;;;;;5052963;28;20117;-87
2023/01/26 09:39:37;;;;;;;0.20;0.20;;;3.80;99.90;;;;;;5051422;28;20465;-87
2023/01/26 09:42:36;;;;;;;0.73;0.68;;;3.70;99.90;;;;;;5054204;28;20458;-87
2023/01/26 09:45:11;;;;;;;0.10;0.10;;;3.70;99.90;;;;;;5055603;28;20076;-87
2023/01/26 09:48:08;;;;;;;0.00;0.00;;;3.90;99.90;;;;;;5055398;28;20057;-87
2023/01/26 09:50:47;;;;;;;0.20;0.20;;;4.00;99.90;;;;;;5056720;28;20053;-87
2023/01/26 09:53:19;;;;;;;0.20;0.20;;;4.10;99.90;;;;;;5056424;28;20487;-87
2023/01/26 09:55:47;;;;;;;0.00;0.00;;;4.30;99.90;;;;;;5056635;28;20391;-87
2023/01/26 09:58:28;;;;;;;0.00;0.00;;;5.60;99.90;;;;;;5056627;28;20051;-87
2023/01/26 10:00:59;;;;;;;0.73;0.73;;;4.80;99.90;;;;;;5072310;28;20459;-87
2023/01/26 10:03:52;;;;;;;0.30;0.30;;;5.00;99.90;;;;;;5071976;28;20047;-87
2023/01/26 10:06:27;;;;;;;2.30;1.75;;;5.00;99.90;;;;;;5054891;28;20053;-88
2023/01/26 10:08:55;;;;;;;0.20;0.20;;;4.90;99.90;;;;;;5056335;28;20045;-88
2023/01/26 10:11:27;;;;;;;2.22;1.45;;;4.70;99.90;;;;;;5056503;28;20079;-88
2023/01/26 10:14:06;;;;;;;0.85;0.57;;;4.70;99.90;;;;;;5056401;28;20044;-87
2023/01/26 10:16:33;;;;;;;0.05;0.05;;;4.80;99.90;;;;;;5071774;28;20049;-87
2023/01/26 10:19:15;;;;;;;3.13;0.75;;;5.00;99.90;;;;;;5055001;28;20383;-88
2023/01/26 10:21:46;;;;;;;2.70;0.88;;;5.10;99.90;;;;;;5056508;28;20045;-87
2023/01/26 10:24:13;;;;;;;0.10;0.10;;;5.20;99.90;;;;;;5071830;28;20076;-88
2023/01/26 10:26:38;;;;;;;0.95;0.95;;;5.20;99.90;;;;;;5054821;28;20053;-87
2023/01/26 10:29:04;;;;;;;2.25;1.88;;;5.20;99.90;;;;;;5071460;28;20041;-87
2023/01/26 10:31:32;;;;;;;2.20;0.73;;;5.20;99.90;;;;;;5055871;28;20418;-87
2023/01/26 10:34:10;;;;;;;0.10;0.10;;;5.20;99.90;;;;;;5055997;28;20498;-87
2023/01/26 10:36:35;;;;;;;0.60;0.50;;;5.20;99.90;;;;;;5055845;28;20068;-87
2023/01/26 10:39:09;;;;;;;0.05;0.05;;;5.30;99.90;;;;;;5054831;28;20088;-87
2023/01/26 10:41:35;;;;;;;0.60;0.60;;;5.40;99.90;;;;;;5055993;28;20048;-87
2023/01/26 10:44:23;;;;;;;0.00;0.00;;;5.40;99.90;;;;;;5055885;28;20491;-87
2023/01/26 10:47:04;;;;;;;1.65;0.70;;;5.50;99.90;;;;;;5053952;28;20045;-87
2023/01/26 10:49:29;;;;;;;0.10;0.10;;;5.50;99.90;;;;;;5054344;28;20049;-88
2023/01/26 10:52:16;;;;;;;0.73;0.73;;;5.50;99.90;;;;;;5055442;28;20044;-88
2023/01/26 10:54:43;;;;;;;0.25;0.25;;;5.70;99.90;;;;;;5054637;28;20112;-88
2023/01/26 10:57:23;;;;;;;0.00;0.00;;;5.70;99.90;;;;;;5070968;28;20065;-89
2023/01/26 10:59:55;;;;;;;0.82;0.50;;;5.80;99.90;;;;;;5070965;28;20041;-88
2023/01/26 11:02:26;;;;;;;1.67;1.10;;;5.90;99.90;;;;;;5055582;28;20394;-88
2023/01/26 11:05:06;;;;;;;0.10;0.10;;;6.30;99.90;;;;;;5055498;28;20052;-88
2023/01/26 11:07:42;;;;;;;6.70;1.58;;;6.50;99.90;;;;;;5055540;28;20444;-88
2023/01/26 11:10:36;;;;;;;0.20;0.20;;;6.60;99.90;;;;;;5054203;28;20509;-88
2023/01/26 11:13:19;;;;;;;0.00;0.00;;;6.80;99.90;;;;;;5070982;28;20486;-88
2023/01/26 11:15:59;;;;;;;0.68;0.65;;;7.10;99.90;;;;;;5070870;28;20050;-89
2023/01/26 11:18:33;;;;;;;0.10;0.10;;;7.20;99.90;;;;;;5055063;28;20040;-89
2023/01/26 11:21:07;;;;;;;4.75;1.75;;;7.20;99.90;;;;;;5053900;28;20461;-88
2023/01/26 11:23:48;;;;;;;0.95;0.95;;;7.10;99.90;;;;;;5055026;28;20063;-88
2023/01/26 11:26:25;;;;;;;0.00;0.00;;;7.00;99.90;;;;;;5053950;28;20100;-88
2023/01/26 11:29:00;;;;;;;0.88;0.65;;;6.90;99.90;;;;;;5070594;28;20053;-88
2023/01/26 11:31:38;;;;;;;1.35;1.05;;;6.80;99.90;;;;;;5053858;28;20056;-89
2023/01/26 11:34:26;;;;;;;0.20;0.20;;;6.70;99.90;;;;;;5054093;28;20444;-89
2023/01/26 11:37:27;;;;;;;0.60;0.60;;;6.70;99.90;;;;;;5055198;28;20044;-89
2023/01/26 11:40:14;;;;;;;0.68;0.68;;;6.70;99.90;;;;;;5070325;28;20055;-89
2023/01/26 11:42:39;;;;;;;;;;;6.60;99.90;;;;;;5055573;28;20085;-89
2023/01/26 11:45:19;;;;;;;0.53;0.53;;;6.70;99.90;;;;;;5055071;28;19968;-89
2023/01/26 11:48:00;;;;;;;0.65;0.38;;;6.70;99.90;;;;;;5053397;28;20053;-89
2023/01/26 11:50:45;;;;;;;0.15;0.15;;;6.70;99.90;;;;;;5055021;28;20122;-89
2023/01/26 11:53:37;;;;;;;0.00;0.00;;;7.00;99.90;;;;;;5070484;28;20142;-89
2023/01/26 11:56:29;;;;;;;0.43;0.40;;;7.30;99.90;;;;;;5055031;28;20552;-89
2023/01/26 11:59:01;;;;;;;0.28;0.28;;;7.60;99.90;;;;;;5054711;28;20041;-90
2023/01/26 12:01:38;;;;;;;0.10;0.05;;;7.70;99.90;;;;;;5054878;28;20473;-89
2023/01/26 12:04:04;;;;;;;0.95;0.75;;;8.80;99.90;;;;;;5069061;28;20052;-90
2023/01/26 12:06:41;;;;;;;0.00;0.00;;;7.70;99.90;;;;;;5069527;28;20049;-90
2023/01/26 12:09:10;;;;;;;1.65;0.95;;;7.40;99.90;;;;;;5054473;28;20398;-90
2023/01/26 12:11:44;;;;;;;0.35;0.35;;;7.20;99.90;;;;;;5054473;28;20132;-90
2023/01/26 12:14:28;;;;;;;1.80;0.70;;;7.00;99.90;;;;;;5069796;28;20102;-90
2023/01/26 12:17:27;;;;;;;0.00;0.00;;;6.90;99.90;;;;;;5069594;28;20057;-90
2023/01/26 12:20:30;;;;;;;0.05;0.05;;;6.90;99.90;;;;;;5069519;28;20128;-89
2023/01/26 12:23:01;;;;;;;0.70;0.70;;;7.00;99.90;;;;;;5052783;28;20048;-89
2023/01/26 12:25:38;;;;;;;0.32;0.32;;;7.20;99.90;;;;;;5053984;28;20513;-89
2023/01/26 12:28:24;;;;;;;0.20;0.20;;;7.40;99.90;;;;;;5069432;28;20075;-89
2023/01/26 12:30:53;;;;;;;2.90;2.00;;;7.40;99.90;;;;;;5054094;28;20048;-89
2023/01/26 12:33:19;;;;;;;0.80;0.65;;;7.40;99.90;;;;;;5054087;28;20387;-90
2023/01/26 12:35:47;;;;;;;0.17;0.17;;;7.60;99.90;;;;;;5053871;28;20048;-89
2023/01/26 12:38:18;;;;;;;2.90;0.98;;;7.50;99.90;;;;;;5053961;28;20049;-89
2023/01/26 12:40:56;;;;;;;0.00;0.00;;;7.60;99.90;;;;;;5069544;28;20394;-89
2023/01/26 12:43:45;;;;;;;3.50;0.75;;;7.60;99.90;;;;;;5054072;28;20052;-89
2023/01/26 12:46:12;;;;;;;1.13;0.30;;;7.60;99.90;;;;;;5053972;28;20402;-89
2023/01/26 12:48:52;;;;;;;6.85;0.55;;;7.70;99.90;;;;;;5068793;28;20080;-89
2023/01/26 12:51:36;;;;;;;0.00;0.00;;;7.90;99.90;;;;;;5052444;28;20235;-89
2023/01/26 12:54:19;;;;;;;0.00;0.00;;;8.00;99.90;;;;;;5052628;28;20045;-89
2023/01/26 12:56:52;;;;;;;0.20;0.20;;;8.00;99.90;;;;;;5069264;28;20137;-90
2023/01/26 12:59:30;;;;;;;0.10;0.10;;;8.00;1.00;;;;;;5053477;28;20498;-89
2023/01/26 13:01:55;;;;;;;0.28;0.08;;;7.80;1.00;;;;;;5053889;28;20044;-90
2023/01/26 13:04:21;;;;;;;0.00;0.00;;;7.80;74.30;;;;;;5068645;28;20040;-89
2023/01/26 13:07:23;;;;;;;0.43;0.43;;;7.80;1.00;;;;;;5053429;28;20444;-89
2023/01/26 13:10:13;;;;;;;0.00;0.00;;;7.90;99.90;;;;;;5052084;28;20057;-89
2023/01/26 13:12:59;;;;;;;0.47;0.35;;;7.90;1.00;;;;;;5052357;28;20490;-90
2023/01/26 13:15:30;;;;;;;0.43;0.43;;;7.70;99.90;;;;;;5053416;28;20044;-90
2023/01/26 13:18:01;;;;;;;0.75;0.75;;;7.60;77.60;;;;;;5053392;28;20083;-89
2023/01/26 13:20:28;;;;;;;0.52;0.52;;;7.60;1.00;;;;;;5053433;28;20033;-89
2023/01/26 13:22:54;;;;;;;3.63;0.45;;;7.50;99.90;;;;;;5051968;28;20398;-89
2023/01/26 13:25:30;;;;;;;0.35;0.10;;;7.70;99.90;;;;;;5053050;28;20102;-90
2023/01/26 13:28:00;;;;;;;;;;;7.60;99.90;;;;;;5053477;28;20111;-89
2023/01/26 13:30:32;;;;;;;1.77;1.10;;;7.60;99.90;;;;;;5051791;28;20440;-89
2023/01/26 13:33:15;;;;;;;0.00;0.00;;;7.70;99.90;;;;;;5053245;28;20395;-89
2023/01/26 13:35:42;;;;;;;0.28;0.28;;;7.70;99.90;;;;;;5053111;28;20037;-89
2023/01/26 13:38:18;;;;;;;0.00;0.00;;;7.70;99.90;;;;;;5053225;28;20111;-89
2023/01/26 13:40:48;;;;;;;0.20;0.20;;;7.60;99.90;;;;;;5068678;28;20048;-90
2023/01/26 13:43:32;;;;;;;0.00;0.00;;;7.60;99.90;;;;;;5053317;28;20076;-89
2023/01/26 13:46:29;;;;;;;0.00;0.00;;;7.50;22.70;;;;;;5053357;28;20072;-89
2023/01/26 13:48:55;;;;;;;0.00;0.00;;;7.40;99.90;;;;;;5068425;28;20063;-89
2023/01/26 13:51:27;;;;;;;0.90;0.85;;;7.40;99.90;;;;;;5051767;28;20071;-90
2023/01/26 13:54:11;;;;;;;1.65;0.80;;;7.30;99.90;;;;;;5051852;28;20049;-89
2023/01/26 13:57:00;;;;;;;0.00;0.00;;;7.20;1.00;;;;;;5068505;28;20060;-89